Time;durP1;ratioP1;P1;durP2;ratioP2;P2;SDS_P1;SDS_P2;PMS_P1;PMS_P2;Temp;Humidity;BMP_temperature;BMP_pressure;BME280_temperature;BME280_humidity;BME280_pressure;Samples;Min_cycle;Max_cycle;Signal;HPM_P1;HPM_P2
2023/01/30 00:01:28;;;;;;;30.80;20.33;;;;;;;-6.78;100.00;99870.88;6195409;23;20205;-89
2023/01/30 00:03:55;;;;;;;32.63;21.17;;;;;;;-6.74;100.00;99888.78;6220437;23;20209;-88
2023/01/30 00:06:22;;;;;;;31.60;21.30;;;;;;;-6.74;100.00;99886.19;6194331;23;20197;-89
2023/01/30 00:08:50;;;;;;;37.67;22.60;;;;;;;-6.79;100.00;99892.63;6192661;23;20209;-89
2023/01/30 00:11:18;;;;;;;31.90;20.43;;;;;;;-6.78;100.00;99889.94;6171354;23;20209;-89
2023/01/30 00:13:46;;;;;;;33.33;19.87;;;;;;;-6.77;100.00;99889.00;6221919;23;20229;-89
2023/01/30 00:16:13;;;;;;;30.57;19.73;;;;;;;-6.79;100.00;99877.84;6196945;23;20217;-90
2023/01/30 00:18:41;;;;;;;32.60;19.73;;;;;;;-6.71;100.00;99869.50;6197094;23;20201;-88
2023/01/30 00:21:10;;;;;;;33.90;20.60;;;;;;;-6.77;100.00;99865.56;6208731;23;20265;-89
2023/01/30 00:23:37;;;;;;;32.57;21.03;;;;;;;-6.79;100.00;99859.59;6212326;23;20263;-89
2023/01/30 00:26:04;;;;;;;33.30;20.17;;;;;;;-6.78;100.00;99863.88;6221838;23;20255;-90
2023/01/30 00:28:32;;;;;;;31.17;19.50;;;;;;;-6.84;100.00;99850.44;6197093;23;20205;-89
2023/01/30 00:30:58;;;;;;;29.97;19.57;;;;;;;-6.76;100.00;99862.00;6221641;23;20726;-88
2023/01/30 00:33:26;;;;;;;35.67;21.13;;;;;;;-6.73;100.00;99851.38;6196145;23;20205;-90
2023/01/30 00:35:54;;;;;;;36.30;21.63;;;;;;;-6.77;100.00;99852.53;6222270;23;20210;-90
2023/01/30 00:38:22;;;;;;;31.57;19.70;;;;;;;-6.80;100.00;99844.91;6157856;23;20612;-88
2023/01/30 00:40:49;;;;;;;32.40;21.13;;;;;;;-6.84;100.00;99838.25;6176193;23;20255;-86
2023/01/30 00:49:14;;;;;;;30.23;18.90;;;;;;;-6.93;100.00;99831.06;6247230;23;20224;-86
2023/01/30 00:51:40;;;;;;;33.43;19.63;;;;;;;-6.73;100.00;99827.09;6172502;23;20280;-87
2023/01/30 00:54:08;;;;;;;33.53;20.10;;;;;;;-6.85;100.00;99820.09;6198248;23;20279;-87
2023/01/30 00:56:34;;;;;;;35.10;20.87;;;;;;;-6.89;100.00;99816.03;6197005;23;20205;-88
2023/01/30 00:59:02;;;;;;;32.37;20.47;;;;;;;-6.86;100.00;99826.28;6220991;23;20209;-87
2023/01/30 01:01:29;;;;;;;29.73;19.33;;;;;;;-6.92;100.00;99816.25;6170212;23;20205;-87
2023/01/30 01:03:55;;;;;;;32.10;19.90;;;;;;;-6.93;100.00;99801.56;6189240;23;20232;-86
2023/01/30 01:06:22;;;;;;;30.40;19.97;;;;;;;-7.00;100.00;99797.72;6220743;23;20224;-87
2023/01/30 01:08:49;;;;;;;33.13;20.70;;;;;;;-6.90;100.00;99803.94;6195753;23;20209;-86
2023/01/30 01:11:23;;;;;;;30.47;19.23;;;;;;;-6.88;100.00;99783.84;6196744;23;20216;-87
2023/01/30 01:13:55;;;;;;;32.17;18.83;;;;;;;-6.89;100.00;99784.78;6196614;23;20197;-87
2023/01/30 01:16:22;;;;;;;31.60;20.13;;;;;;;-6.93;100.00;99778.13;6195298;23;20201;-88
2023/01/30 01:18:50;;;;;;;33.77;20.37;;;;;;;-6.82;100.00;99779.06;6195095;23;20212;-87
2023/01/30 01:21:18;;;;;;;31.53;19.73;;;;;;;-6.68;100.00;99770.28;6221320;23;20216;-87
2023/01/30 01:23:51;;;;;;;29.87;18.70;;;;;;;-6.82;100.00;99763.44;6220322;23;20210;-86
2023/01/30 01:26:18;;;;;;;30.07;18.30;;;;;;;-6.74;100.00;99763.72;6180506;23;20213;-85
2023/01/30 01:28:45;;;;;;;31.80;18.97;;;;;;;-6.78;100.00;99764.88;6173414;23;20205;-86
2023/01/30 01:31:13;;;;;;;30.60;19.20;;;;;;;-6.91;100.00;99748.44;6194043;23;20205;-88
2023/01/30 01:33:40;;;;;;;27.17;17.90;;;;;;;-6.87;100.00;99744.69;6194300;23;20240;-85
2023/01/30 01:36:07;;;;;;;27.17;18.00;;;;;;;-6.83;100.00;99738.31;6218019;23;20213;-86
2023/01/30 01:38:34;;;;;;;31.53;19.87;;;;;;;-6.85;100.00;99744.56;6218473;23;20268;-87
2023/01/30 01:41:01;;;;;;;30.27;19.43;;;;;;;-6.89;100.00;99743.09;6170341;23;20206;-89
2023/01/30 01:43:36;;;;;;;29.80;18.23;;;;;;;-6.84;100.00;99730.59;6194290;23;20279;-87
2023/01/30 01:46:17;;;;;;;28.60;17.63;;;;;;;-6.79;100.00;99737.16;6194124;23;20666;-87
2023/01/30 01:48:48;;;;;;;29.73;17.93;;;;;;;-6.79;100.00;99721.53;6218744;23;20205;-87
2023/01/30 01:51:19;;;;;;;29.60;18.47;;;;;;;-6.64;100.00;99729.19;6219948;23;20220;-87
2023/01/30 01:53:53;;;;;;;28.43;17.33;;;;;;;-6.61;100.00;99727.19;6194623;23;20201;-88
2023/01/30 01:56:20;;;;;;;30.30;18.27;;;;;;;-6.60;100.00;99717.59;6219134;23;20271;-88
2023/01/30 01:58:56;;;;;;;32.07;18.17;;;;;;;-6.66;100.00;99708.44;6194259;23;20217;-88
2023/01/30 02:01:22;;;;;;;26.20;16.80;;;;;;;-6.58;100.00;99711.38;6194287;23;20205;-87
2023/01/30 02:03:55;;;;;;;29.50;17.43;;;;;;;-6.52;100.00;99715.28;6243764;23;20209;-87
2023/01/30 02:06:23;;;;;;;30.67;17.93;;;;;;;-6.50;100.00;99714.25;6193012;23;20202;-86
2023/01/30 02:08:54;;;;;;;27.53;17.77;;;;;;;-6.49;100.00;99712.47;6193865;23;20209;-85
2023/01/30 02:11:53;;;;;;;26.77;16.80;;;;;;;-6.47;100.00;99705.34;6194148;23;20209;-86
2023/01/30 02:14:20;;;;;;;27.40;17.30;;;;;;;-6.49;100.00;99702.88;6192757;23;20255;-85
2023/01/30 02:16:49;;;;;;;22.97;16.17;;;;;;;-6.52;100.00;99699.63;6218571;23;20289;-87
2023/01/30 02:19:39;;;;;;;26.73;15.67;;;;;;;-6.40;100.00;99698.78;6192955;23;20229;-86
2023/01/30 02:22:30;;;;;;;24.17;15.50;;;;;;;-6.35;100.00;99694.91;6192555;23;20225;-85
2023/01/30 02:25:31;;;;;;;25.37;15.20;;;;;;;-6.38;100.00;99697.72;6193019;23;20205;-88
2023/01/30 02:28:35;;;;;;;23.67;15.67;;;;;;;-6.35;100.00;99691.47;6217280;23;20213;-87
2023/01/30 02:31:05;;;;;;;23.37;14.47;;;;;;;-6.35;100.00;99683.63;6192618;23;20275;-87
2023/01/30 02:33:38;;;;;;;21.93;14.50;;;;;;;-6.36;100.00;99679.34;6218038;23;20189;-86
2023/01/30 02:36:26;;;;;;;24.27;14.53;;;;;;;-6.38;100.00;99668.19;6216903;23;20273;-86
2023/01/30 02:39:04;;;;;;;23.90;14.57;;;;;;;-6.41;100.00;99660.59;6193122;23;20205;-87
2023/01/30 02:41:45;;;;;;;22.43;14.13;;;;;;;-6.37;100.00;99672.47;6217770;23;20235;-89
2023/01/30 02:44:12;;;;;;;21.63;13.60;;;;;;;-6.35;100.00;99676.66;6191571;23;20308;-88
2023/01/30 02:47:15;;;;;;;22.03;14.10;;;;;;;-6.34;100.00;99669.63;6218537;23;20224;-88
2023/01/30 02:49:48;;;;;;;22.57;14.03;;;;;;;-6.28;100.00;99677.84;6118775;23;20259;-88
2023/01/30 02:52:15;;;;;;;19.63;12.87;;;;;;;-6.37;100.00;99667.25;6192121;23;20209;-86
2023/01/30 02:54:44;;;;;;;21.47;14.07;;;;;;;-6.34;100.00;99665.25;6168066;23;20212;-88
2023/01/30 02:57:23;;;;;;;20.63;13.10;;;;;;;-6.39;100.00;99643.09;6167439;23;20243;-88
2023/01/30 02:59:56;;;;;;;21.20;12.87;;;;;;;-6.33;100.00;99643.47;6192875;23;20217;-86
2023/01/30 03:02:37;;;;;;;20.17;13.57;;;;;;;-6.29;100.00;99663.13;6216156;23;20276;-85
2023/01/30 03:05:31;;;;;;;21.27;13.83;;;;;;;-6.30;100.00;99645.03;6241879;23;20209;-86
2023/01/30 03:08:13;;;;;;;21.00;13.47;;;;;;;-6.36;100.00;99648.06;6191562;23;20224;-87
2023/01/30 03:10:54;;;;;;;21.00;13.30;;;;;;;-6.37;100.00;99631.59;6241254;23;20207;-85
2023/01/30 03:13:43;;;;;;;19.57;13.67;;;;;;;-6.35;100.00;99629.72;6215555;23;20297;-88
2023/01/30 03:16:27;;;;;;;21.60;13.67;;;;;;;-6.34;100.00;99620.09;6215536;23;20552;-85
2023/01/30 03:18:54;;;;;;;22.30;13.63;;;;;;;-6.27;100.00;99624.75;6191445;23;20716;-86
2023/01/30 03:21:20;;;;;;;19.67;12.90;;;;;;;-6.26;100.00;99616.00;6191380;23;20228;-88
2023/01/30 03:23:50;;;;;;;18.57;12.53;;;;;;;-6.30;100.00;99601.50;6192594;23;20208;-87
2023/01/30 03:26:22;;;;;;;17.53;12.17;;;;;;;-6.29;100.00;99600.56;6166424;23;20219;-87
2023/01/30 03:28:50;;;;;;;17.23;11.20;;;;;;;-6.25;100.00;99598.56;6191619;23;20213;-86
2023/01/30 03:31:18;;;;;;;20.23;11.90;;;;;;;-6.33;100.00;99578.28;6168129;23;20205;-86
2023/01/30 03:33:45;;;;;;;19.00;12.20;;;;;;;-6.38;100.00;99590.81;6216094;23;20240;-86
2023/01/30 03:36:12;;;;;;;17.33;11.67;;;;;;;-6.39;100.00;99594.38;6215720;23;20209;-85
2023/01/30 03:38:39;;;;;;;18.17;11.97;;;;;;;-6.36;100.00;99604.59;6190834;23;20212;-83
2023/01/30 03:41:06;;;;;;;18.10;11.67;;;;;;;-6.36;100.00;99603.75;6215610;23;20225;-86
2023/01/30 03:43:33;;;;;;;15.87;11.37;;;;;;;-6.40;100.00;99594.50;6191257;23;20276;-84
2023/01/30 03:46:02;;;;;;;18.20;12.00;;;;;;;-6.36;100.00;99590.72;6166121;23;20216;-88
2023/01/30 03:48:28;;;;;;;17.00;11.13;;;;;;;-6.43;100.00;99587.72;6215720;23;20205;-88
2023/01/30 03:50:55;;;;;;;17.67;11.50;;;;;;;-6.39;100.00;99588.34;6190763;23;20213;-85
2023/01/30 03:53:22;;;;;;;17.33;11.37;;;;;;;-6.39;100.00;99589.16;6190971;23;20221;-85
2023/01/30 03:55:49;;;;;;;18.30;11.50;;;;;;;-6.38;100.00;99588.22;6190487;23;20205;-89
2023/01/30 03:58:21;;;;;;;19.20;12.17;;;;;;;-6.31;100.00;99592.03;6168379;23;20213;-85
2023/01/30 04:00:47;;;;;;;17.17;11.57;;;;;;;-6.25;100.00;99575.91;6215553;23;20209;-87
2023/01/30 04:03:14;;;;;;;16.17;10.67;;;;;;;-6.34;100.00;99566.19;6216089;23;20255;-88
2023/01/30 04:05:42;;;;;;;16.83;11.13;;;;;;;-6.32;100.00;99563.47;6191626;23;20284;-85
2023/01/30 04:08:09;;;;;;;15.50;10.50;;;;;;;-6.27;100.00;99562.19;6215636;23;20529;-83
2023/01/30 04:10:37;;;;;;;16.60;11.17;;;;;;;-6.22;100.00;99559.22;6192013;23;20267;-86
2023/01/30 04:13:04;;;;;;;17.33;11.27;;;;;;;-6.31;100.00;99560.75;6217654;23;20189;-87
2023/01/30 04:15:31;;;;;;;14.73;10.63;;;;;;;-6.32;100.00;99558.25;6217100;23;20213;-88
2023/01/30 04:18:21;;;;;;;19.73;12.43;;;;;;;-6.28;100.00;99542.25;6213925;23;20213;-85
2023/01/30 04:21:02;;;;;;;19.20;12.53;;;;;;;-6.27;100.00;99540.47;6174168;23;20744;-86
2023/01/30 04:23:34;;;;;;;14.87;10.57;;;;;;;-6.24;100.00;99528.03;6217694;23;20206;-85
2023/01/30 04:26:02;;;;;;;20.53;10.87;;;;;;;-6.20;100.00;99531.25;6183376;23;20209;-86
2023/01/30 04:28:31;;;;;;;17.47;11.13;;;;;;;-6.28;100.00;99525.78;6217685;23;20209;-87
2023/01/30 04:30:58;;;;;;;18.57;11.30;;;;;;;-6.33;100.00;99525.28;6217533;23;20292;-86
2023/01/30 04:33:38;;;;;;;17.43;11.37;;;;;;;-6.30;100.00;99527.69;6216829;23;20236;-86
2023/01/30 04:36:08;;;;;;;15.77;11.00;;;;;;;-6.31;100.00;99518.19;6190948;23;20549;-87
2023/01/30 04:38:36;;;;;;;17.00;10.67;;;;;;;-6.36;100.00;99509.91;6215651;23;20280;-86
2023/01/30 04:41:04;;;;;;;17.50;10.80;;;;;;;-6.31;100.00;99516.44;6191764;23;20216;-87
2023/01/30 04:43:33;;;;;;;17.47;10.97;;;;;;;-6.36;100.00;99513.34;6191396;23;20227;-87
2023/01/30 04:46:18;;;;;;;17.07;10.70;;;;;;;-6.33;100.00;99507.03;6193898;23;20209;-87
2023/01/30 04:48:44;;;;;;;16.80;10.97;;;;;;;-6.30;100.00;99517.25;6165760;23;20214;-87
2023/01/30 04:51:11;;;;;;;18.57;11.23;;;;;;;-6.38;100.00;99519.59;6191074;23;20189;-85
2023/01/30 04:53:38;;;;;;;19.00;11.27;;;;;;;-6.38;100.00;99522.19;6239994;23;20202;-84
2023/01/30 04:56:05;;;;;;;16.63;10.97;;;;;;;-6.47;100.00;99510.69;6215912;23;20216;-87
2023/01/30 04:58:32;;;;;;;17.50;11.13;;;;;;;-6.39;100.00;99517.97;6216999;23;20239;-85
2023/01/30 05:01:20;;;;;;;16.23;11.00;;;;;;;-6.42;100.00;99515.56;6217103;23;20595;-84
2023/01/30 05:03:53;;;;;;;15.93;10.63;;;;;;;-6.43;100.00;99526.94;6193086;23;20241;-85
2023/01/30 05:06:21;;;;;;;16.30;11.20;;;;;;;-6.49;100.00;99515.22;6191126;23;20277;-83
2023/01/30 05:08:48;;;;;;;16.83;11.10;;;;;;;-6.51;100.00;99526.69;6241650;23;20201;-85
2023/01/30 05:11:15;;;;;;;20.23;11.87;;;;;;;-6.45;100.00;99521.03;6192515;23;20213;-85
2023/01/30 05:13:45;;;;;;;18.17;11.67;;;;;;;-6.42;100.00;99515.56;6216165;23;20553;-86
2023/01/30 05:16:12;;;;;;;16.30;10.53;;;;;;;-6.33;100.00;99528.75;6166356;23;20229;-86
2023/01/30 05:18:39;;;;;;;16.97;10.73;;;;;;;-6.35;100.00;99504.56;6215940;23;20689;-87
2023/01/30 05:21:07;;;;;;;14.90;10.07;;;;;;;-6.26;100.00;99501.28;6192780;23;20275;-86
2023/01/30 05:23:34;;;;;;;17.77;11.47;;;;;;;-6.27;100.00;99497.00;6242560;23;20228;-86
2023/01/30 05:26:02;;;;;;;16.60;12.00;;;;;;;-6.22;100.00;99491.44;6216896;23;20205;-86
2023/01/30 05:28:29;;;;;;;16.40;11.23;;;;;;;-6.09;100.00;99494.75;6191898;23;20236;-89
2023/01/30 05:31:06;;;;;;;16.40;11.60;;;;;;;-5.97;100.00;99496.41;6217028;23;20232;-88
2023/01/30 05:33:33;;;;;;;19.67;11.77;;;;;;;-5.88;100.00;99481.84;6192812;23;20213;-87
2023/01/30 05:36:00;;;;;;;17.20;11.30;;;;;;;-5.88;100.00;99476.63;6192006;23;20723;-86
2023/01/30 05:38:28;;;;;;;17.30;11.40;;;;;;;-5.80;100.00;99475.03;6164415;23;20283;-85
2023/01/30 05:41:05;;;;;;;15.70;11.30;;;;;;;-5.84;100.00;99464.97;6215723;23;20202;-88
2023/01/30 05:43:34;;;;;;;17.43;11.17;;;;;;;-5.80;100.00;99461.16;6216045;23;20213;-86
2023/01/30 05:46:03;;;;;;;15.47;11.00;;;;;;;-5.80;100.00;99459.38;6166272;23;20705;-82
2023/01/30 05:48:31;;;;;;;18.37;10.33;;;;;;;-5.80;100.00;99448.09;6216649;23;20268;-86
2023/01/30 05:50:58;;;;;;;17.17;11.07;;;;;;;-5.67;100.00;99437.53;6216306;23;20216;-86
2023/01/30 05:53:31;;;;;;;16.80;11.40;;;;;;;-5.69;100.00;99445.47;6217145;23;20252;-85
2023/01/30 05:56:00;;;;;;;16.80;11.17;;;;;;;-5.57;100.00;99438.47;6216120;23;20213;-88
2023/01/30 05:58:27;;;;;;;17.00;10.77;;;;;;;-5.61;100.00;99442.25;6215470;23;20205;-87
2023/01/30 06:01:01;;;;;;;13.73;9.67;;;;;;;-5.56;100.00;99445.34;6167319;23;20204;-86
2023/01/30 06:03:29;;;;;;;17.03;10.67;;;;;;;-5.57;100.00;99444.50;6191816;23;20260;-85
2023/01/30 06:05:56;;;;;;;15.90;10.50;;;;;;;-5.61;100.00;99458.75;6216078;23;20210;-89
2023/01/30 06:08:23;;;;;;;14.80;10.10;;;;;;;-5.65;100.00;99473.00;6216070;23;20225;-83
2023/01/30 06:10:50;;;;;;;16.20;10.57;;;;;;;-5.77;100.00;99473.94;6216319;23;20212;-89
2023/01/30 06:13:17;;;;;;;16.50;10.20;;;;;;;-5.77;100.00;99484.38;6216114;23;20220;-85
2023/01/30 06:15:44;;;;;;;16.17;10.47;;;;;;;-5.80;100.00;99488.09;6191761;23;20239;-87
2023/01/30 06:18:11;;;;;;;16.57;9.50;;;;;;;-5.75;100.00;99497.34;6215994;23;20201;-87
2023/01/30 06:20:38;;;;;;;14.53;10.17;;;;;;;-5.68;100.00;99491.50;6191451;23;20219;-85
2023/01/30 06:23:05;;;;;;;14.73;10.33;;;;;;;-5.75;100.00;99477.28;6191331;23;20213;-86
2023/01/30 06:25:32;;;;;;;14.47;9.87;;;;;;;-5.70;100.00;99467.31;6215532;23;20312;-87
2023/01/30 06:27:58;;;;;;;15.97;9.67;;;;;;;-5.58;100.00;99463.72;6215894;23;20213;-85
2023/01/30 06:30:26;;;;;;;16.73;10.73;;;;;;;-5.59;100.00;99454.22;6189684;23;20275;-85
2023/01/30 06:32:52;;;;;;;15.97;10.63;;;;;;;-5.54;100.00;99465.13;6215673;23;20291;-85
2023/01/30 06:35:19;;;;;;;15.43;9.83;;;;;;;-5.55;100.00;99475.72;6190106;23;20206;-86
2023/01/30 06:37:46;;;;;;;14.17;9.80;;;;;;;-5.58;100.00;99489.00;6166846;23;20263;-87
2023/01/30 06:40:13;;;;;;;15.10;10.50;;;;;;;-5.52;100.00;99486.75;6191156;23;20213;-88
2023/01/30 06:42:47;;;;;;;16.00;10.70;;;;;;;-5.45;100.00;99468.78;6216226;23;20662;-88
2023/01/30 06:45:16;;;;;;;15.17;10.43;;;;;;;-5.45;100.00;99464.41;6215470;23;20228;-86
2023/01/30 06:47:47;;;;;;;15.30;10.57;;;;;;;-5.39;100.00;99447.41;6239429;23;20205;-86
2023/01/30 06:50:15;;;;;;;15.57;10.87;;;;;;;-5.30;100.00;99425.78;6215330;23;20659;-84
2023/01/30 06:52:42;;;;;;;25.63;14.93;;;;;;;-5.30;100.00;99417.13;6190796;23;20210;-84
2023/01/30 06:55:11;;;;;;;28.27;16.70;;;;;;;-5.25;100.00;99409.75;6190676;23;20721;-86
2023/01/30 06:57:37;;;;;;;28.07;17.17;;;;;;;-5.23;100.00;99398.25;6240601;23;20659;-84
2023/01/30 07:00:06;;;;;;;27.20;17.73;;;;;;;-5.17;100.00;99405.53;6216121;23;20276;-86
2023/01/30 07:02:34;;;;;;;24.87;14.30;;;;;;;-5.14;100.00;99399.25;6215702;23;20205;-87
2023/01/30 07:05:02;;;;;;;17.67;11.40;;;;;;;-5.09;100.00;99413.59;6190712;23;20264;-89
2023/01/30 07:07:30;;;;;;;14.60;9.83;;;;;;;-5.04;100.00;99394.94;6191394;23;20205;-86
2023/01/30 07:09:58;;;;;;;17.10;10.83;;;;;;;-4.92;100.00;99414.81;6216769;23;20219;-87
2023/01/30 07:12:35;;;;;;;15.10;10.70;;;;;;;-4.89;100.00;99427.63;6215348;23;20197;-82
2023/01/30 07:15:02;;;;;;;19.00;12.60;;;;;;;-4.86;100.00;99430.00;6215755;23;20213;-85
2023/01/30 07:17:29;;;;;;;17.60;11.50;;;;;;;-4.82;100.00;99441.03;6215551;23;20212;-88
2023/01/30 07:19:56;;;;;;;18.17;11.50;;;;;;;-4.73;100.00;99430.63;6216463;23;20607;-86
2023/01/30 07:22:24;;;;;;;17.67;12.43;;;;;;;-4.66;100.00;99423.91;6190272;23;20201;-85
2023/01/30 07:24:51;;;;;;;15.83;11.50;;;;;;;-4.59;100.00;99419.03;6215946;23;20206;-85
2023/01/30 07:27:18;;;;;;;17.73;12.10;;;;;;;-4.53;100.00;99415.91;6191336;23;20220;-88
2023/01/30 07:29:45;;;;;;;18.53;12.33;;;;;;;-4.42;100.00;99428.88;6178078;23;20777;-86
2023/01/30 07:32:15;;;;;;;16.70;11.07;;;;;;;-4.35;100.00;99418.72;6189512;23;20208;-88
2023/01/30 07:34:44;;;;;;;15.20;10.77;;;;;;;-4.29;100.00;99426.88;6169469;23;20205;-89
2023/01/30 07:37:14;;;;;;;14.97;10.80;;;;;;;-4.13;100.00;99410.69;6197863;23;20666;-85
2023/01/30 07:39:42;;;;;;;17.47;10.90;;;;;;;-4.11;100.00;99411.41;6221497;23;20206;-87
2023/01/30 07:42:09;;;;;;;17.63;10.87;;;;;;;-3.92;100.00;99410.66;6195398;23;20185;-83
2023/01/30 07:44:37;;;;;;;17.17;11.13;;;;;;;-3.78;100.00;99428.59;6177122;23;20207;-82
2023/01/30 07:47:04;;;;;;;21.37;11.53;;;;;;;-3.65;100.00;99426.56;6229578;23;20209;-83
2023/01/30 07:49:32;;;;;;;15.17;10.77;;;;;;;-3.48;100.00;99457.31;6205356;23;20205;-82
2023/01/30 07:51:59;;;;;;;16.20;10.50;;;;;;;-3.40;100.00;99443.53;6193458;23;20214;-83
2023/01/30 07:54:27;;;;;;;14.87;10.57;;;;;;;-3.18;100.00;99446.78;6231709;23;20212;-83
2023/01/30 07:56:55;;;;;;;15.37;10.70;;;;;;;-3.15;100.00;99436.00;6257085;23;20193;-84
2023/01/30 07:59:23;;;;;;;15.80;11.27;;;;;;;-2.96;100.00;99450.91;6233625;23;20231;-82
2023/01/30 08:01:51;;;;;;;16.57;11.10;;;;;;;-2.81;100.00;99444.28;6234115;23;20229;-82
2023/01/30 08:04:19;;;;;;;15.43;10.63;;;;;;;-2.66;100.00;99440.25;6206644;23;20213;-81
2023/01/30 08:06:47;;;;;;;14.33;10.40;;;;;;;-2.62;100.00;99430.31;6230907;23;20196;-83
2023/01/30 08:09:14;;;;;;;12.83;9.40;;;;;;;-2.54;100.00;99424.34;6233397;23;20205;-81
2023/01/30 08:11:45;;;;;;;15.33;11.17;;;;;;;-2.43;100.00;99426.81;6234464;23;20213;-81
2023/01/30 08:14:12;;;;;;;13.23;10.23;;;;;;;-2.33;100.00;99424.97;6231358;23;20221;-81
2023/01/30 08:16:40;;;;;;;16.43;11.27;;;;;;;-2.20;100.00;99433.38;6235022;23;20220;-80
2023/01/30 08:19:08;;;;;;;12.40;10.03;;;;;;;-2.16;100.00;99429.50;6235189;23;20189;-80
2023/01/30 08:21:36;;;;;;;12.57;9.47;;;;;;;-2.10;100.00;99423.66;6210191;23;20271;-81
2023/01/30 08:24:04;;;;;;;12.90;10.13;;;;;;;-2.03;100.00;99411.63;6170526;23;20205;-81
2023/01/30 08:26:34;;;;;;;14.17;10.33;;;;;;;-1.93;100.00;99414.19;6211202;23;20215;-80
2023/01/30 08:29:01;;;;;;;16.07;11.03;;;;;;;-1.96;100.00;99394.28;6184619;23;20202;-81
2023/01/30 08:31:28;;;;;;;14.13;10.57;;;;;;;-1.89;100.00;99381.44;6233645;23;20205;-81
2023/01/30 08:33:56;;;;;;;15.20;10.23;;;;;;;-1.84;100.00;99384.44;6210930;23;20213;-82
2023/01/30 08:36:25;;;;;;;15.10;10.60;;;;;;;-1.81;100.00;99390.22;6211299;23;20201;-82
2023/01/30 08:38:52;;;;;;;14.50;10.40;;;;;;;-1.72;100.00;99379.78;6237452;23;20269;-82
2023/01/30 08:41:19;;;;;;;14.13;10.13;;;;;;;-1.63;100.00;99373.69;6212745;23;20229;-81
2023/01/30 08:43:47;;;;;;;14.73;10.77;;;;;;;-1.47;100.00;99373.84;6235724;23;20201;-81
2023/01/30 08:46:16;;;;;;;15.63;10.93;;;;;;;-1.41;100.00;99363.56;6206646;23;20213;-81
2023/01/30 08:48:44;;;;;;;14.77;11.37;;;;;;;-1.21;100.00;99373.94;6209534;23;20568;-80
2023/01/30 08:51:17;;;;;;;17.60;13.40;;;;;;;-1.04;100.00;99368.66;6189077;23;20284;-81
2023/01/30 08:53:45;;;;;;;23.87;17.53;;;;;;;-0.82;100.00;99355.97;6231544;23;20250;-81
2023/01/30 08:56:13;;;;;;;26.73;18.90;;;;;;;-0.62;100.00;99350.38;6231573;23;20261;-80
2023/01/30 08:58:47;;;;;;;26.20;18.00;;;;;;;-0.54;100.00;99337.25;6237686;23;20201;-81
2023/01/30 09:01:17;;;;;;;24.07;17.07;;;;;;;-0.36;100.00;99331.09;6238300;23;20216;-80
2023/01/30 09:03:48;;;;;;;25.63;18.47;;;;;;;-0.15;100.00;99332.34;6215194;23;20209;-81
2023/01/30 09:06:23;;;;;;;25.37;18.93;;;;;;;-0.02;100.00;99311.66;6240611;23;20225;-80
2023/01/30 09:08:54;;;;;;;23.40;17.20;;;;;;;0.21;100.00;99317.16;6240133;23;20261;-82
2023/01/30 09:11:26;;;;;;;22.93;16.70;;;;;;;0.46;100.00;99309.28;6215546;23;20200;-81
2023/01/30 09:13:53;;;;;;;20.17;14.00;;;;;;;0.68;100.00;99317.38;6213318;23;20205;-80
2023/01/30 09:16:20;;;;;;;20.57;14.17;;;;;;;0.88;100.00;99299.41;6250655;23;20209;-81
2023/01/30 09:18:48;;;;;;;22.10;16.07;;;;;;;1.10;100.00;99317.19;6218377;23;20233;-81
2023/01/30 09:21:15;;;;;;;23.90;17.37;;;;;;;1.30;100.00;99305.31;6225937;23;20201;-80
2023/01/30 09:23:43;;;;;;;24.23;16.80;;;;;;;1.45;100.00;99309.84;6229952;23;20205;-81
2023/01/30 09:26:11;;;;;;;22.33;17.07;;;;;;;1.67;100.00;99309.16;6213366;23;20201;-81
2023/01/30 09:28:39;;;;;;;24.67;18.13;;;;;;;1.74;100.00;99310.94;6213545;23;20206;-84
2023/01/30 09:31:09;;;;;;;22.03;16.33;;;;;;;1.82;100.00;99314.56;6222552;23;20209;-82
2023/01/30 09:33:43;;;;;;;21.60;15.00;;;;;;;1.95;100.00;99310.38;6247276;23;20212;-84
2023/01/30 09:36:14;;;;;;;20.20;14.60;;;;;;;2.01;100.00;99311.47;6240157;23;20154;-84
2023/01/30 09:39:24;;;;;;;17.73;13.47;;;;;;;2.02;100.00;99291.97;6246894;23;20204;-83
2023/01/30 09:41:59;;;;;;;15.83;12.83;;;;;;;2.01;100.00;99298.25;6214352;23;20224;-84
2023/01/30 09:44:51;;;;;;;15.10;12.83;;;;;;;1.78;100.00;99287.63;6222715;23;20208;-83
2023/01/30 10:35:35;;;;;;;18.50;14.37;;;;;;;2.33;100.00;99173.03;6232889;22;20213;-83
2023/01/30 10:38:15;;;;;;;19.40;15.33;;;;;;;2.62;100.00;99162.50;6234145;23;20267;-83
2023/01/30 10:40:48;;;;;;;20.03;15.33;;;;;;;2.78;100.00;99150.94;6210679;23;20225;-83
2023/01/30 10:43:20;;;;;;;19.93;15.50;;;;;;;2.93;100.00;99147.31;6211867;23;20217;-83
2023/01/30 10:46:26;;;;;;;19.33;14.93;;;;;;;3.08;100.00;99131.41;6239666;23;20213;-83
2023/01/30 10:49:05;;;;;;;16.97;13.67;;;;;;;3.11;100.00;99123.13;6237797;23;20209;-86
2023/01/30 10:51:38;;;;;;;25.30;19.03;;;;;;;3.45;100.00;99122.50;6216316;23;20220;-83
2023/01/30 10:54:17;;;;;;;19.30;15.10;;;;;;;3.50;100.00;99118.28;6238870;23;20186;-83
2023/01/30 10:56:57;;;;;;;19.43;14.93;;;;;;;3.67;100.00;99110.13;6239240;23;20216;-84
2023/01/30 10:59:48;;;;;;;17.07;13.27;;;;;;;3.83;100.00;99107.19;6265631;23;20195;-84
2023/01/30 11:02:43;;;;;;;18.93;12.43;;;;;;;4.00;100.00;99095.34;6213951;23;20209;-84
2023/01/30 11:05:25;;;;;;;16.40;12.13;;;;;;;4.02;100.00;99074.75;6229849;23;20287;-84
2023/01/30 11:07:57;;;;;;;14.20;10.97;;;;;;;4.03;100.00;99063.16;6238782;23;20205;-84
2023/01/30 11:10:39;;;;;;;14.80;12.07;;;;;;;4.00;100.00;99063.56;6198944;23;20205;-84
2023/01/30 11:13:33;;;;;;;12.80;10.53;;;;;;;3.97;100.00;99050.66;6242704;23;20174;-85
2023/01/30 11:16:21;;;;;;;14.63;11.10;;;;;;;3.77;100.00;99037.25;6233347;23;20233;-85
2023/01/30 11:19:05;;;;;;;12.27;9.30;;;;;;;3.56;100.00;99021.34;6242421;23;20173;-85
2023/01/30 11:21:56;;;;;;;10.67;8.23;;;;;;;3.44;100.00;99022.88;6224797;23;20246;-84
2023/01/30 11:24:45;;;;;;;8.80;7.20;;;;;;;3.32;100.00;99014.59;6220210;23;20184;-85
2023/01/30 11:27:35;;;;;;;9.00;7.20;;;;;;;3.14;100.00;99006.25;6217581;23;20182;-85
2023/01/30 11:30:23;;;;;;;9.20;7.07;;;;;;;3.20;100.00;98997.59;6238878;23;20169;-85
2023/01/30 11:33:25;;;;;;;8.80;6.70;;;;;;;3.17;100.00;98979.44;6239324;23;20189;-85
2023/01/30 11:36:46;;;;;;;8.87;7.43;;;;;;;3.35;100.00;98963.94;6202469;23;20192;-85
2023/01/30 11:39:37;;;;;;;7.30;5.90;;;;;;;3.61;100.00;98981.88;6194821;23;20204;-85
2023/01/30 11:46:43;;;;;;;5.20;4.37;;;;;;;4.27;100.00;98975.22;6243521;23;20222;-85
2023/01/30 11:49:51;;;;;;;3.03;2.33;;;;;;;4.66;100.00;98963.19;6229243;23;20166;-85
2023/01/30 11:52:39;;;;;;;1.90;1.10;;;;;;;4.95;100.00;98964.72;6221473;23;20172;-84
2023/01/30 11:55:34;;;;;;;0.40;0.40;;;;;;;5.44;100.00;98908.63;6242759;23;20153;-85
2023/01/30 11:58:36;;;;;;;0.27;0.20;;;;;;;5.84;100.00;98912.91;6242745;23;20149;-85
2023/01/30 12:01:12;;;;;;;0.53;0.30;;;;;;;6.06;100.00;98921.50;6217834;23;20149;-84
2023/01/30 12:03:51;;;;;;;0.20;0.20;;;;;;;6.36;100.00;98903.19;6240894;23;20149;-84
2023/01/30 12:06:28;;;;;;;0.40;0.40;;;;;;;6.43;100.00;98898.69;6240488;23;20180;-84
2023/01/30 12:08:56;;;;;;;0.40;0.30;;;;;;;6.63;100.00;98888.75;6213791;23;20149;-83
2023/01/30 12:11:48;;;;;;;0.63;0.30;;;;;;;6.66;100.00;98887.53;6237850;23;20189;-83
2023/01/30 12:14:36;;;;;;;0.30;0.27;;;;;;;6.53;100.00;98896.41;6236753;23;20571;-84
2023/01/30 12:17:30;;;;;;;0.63;0.30;;;;;;;6.51;100.00;98885.94;6232898;23;20252;-82
2023/01/30 12:20:19;;;;;;;0.40;0.40;;;;;;;6.62;100.00;98887.13;6198211;23;20189;-83
2023/01/30 12:23:12;;;;;;;0.40;0.40;;;;;;;6.63;100.00;98878.94;6196536;23;20268;-83
2023/01/30 12:25:47;;;;;;;1.87;0.20;;;;;;;6.64;100.00;98891.22;6179471;23;20719;-82
2023/01/30 12:28:22;;;;;;;0.17;0.17;;;;;;;6.91;100.00;98877.75;6193054;23;20213;-82
2023/01/30 12:30:55;;;;;;;0.43;0.30;;;;;;;6.97;100.00;98885.72;6193090;23;20205;-82
2023/01/30 12:33:26;;;;;;;0.20;0.20;;;;;;;7.20;100.00;98881.66;6195711;23;20285;-82
2023/01/30 12:36:08;;;;;;;0.93;0.40;;;;;;;7.42;100.00;98870.41;6201406;23;20213;-82